Ear Falls, Canada
Current Conditions -  °F | °C
As of 9:00 PM on Tuesday 21 Oct 2014 (Local Time) from CYRL Reporting Station
Clear Clear  
Wind Chill: 35°   Ceiling: Unl
Heat Index: 43°   Visibility: 15mi
Dew Point: 36°   Wind: 15mph
Humidity: 76%   Direction: 150°SSE
Pressure: 29.97"   Gusts: 21mph
Location:  50.64°N, 93.23°W
Report Text: CYRL 220200Z 15013G18KT 15SM SKC 06/02 A2997 RMK LAST STFD OBS/ NEXT 22 0900UTC SLP164
Loading
Personal Weather Stations






























Interactive Weather Map
Tropical Storm Tracking
New forecast layout! Learn more

10-Day Weather Forecast

Advertisements
Track Severe Weather on mobile